WJA2788 CYQT-MMUN
Flight info
| Callsign | WJA2788 |
|---|---|
| Flight time | N/A |
| Altitude | 35000 |
| Route | YQT DCT NOONY/N0451F360 DCT CAROL DCT WINAP DCT LEV/N0449F370 A770 KEHLI UL209 BETAS DCT VOMAR VOMAR1A |
| Aircraft | B738/M-SDE2E3FGHIRWXY/LB1 |
Departure
| Time | 2026-04-24 00:20 |
|---|---|
| Airport | Thunder Bay International Airport (CYQT) |
Arrival
| Time | N/A |
|---|---|
| Airport | Cancún International Airport (MMUN) |
| Time | Latitude | Longitude | Altitude | Speed | Heading |
|---|---|---|---|---|---|
| 2026-04-23 23:49 | 48.37185 | -89.31339 | 636 ft | 0 kts | 129° |
| 2026-04-24 00:09 | 48.37186 | -89.31339 | 635 ft | 0 kts | 129° |
| 2026-04-24 00:09 | 48.37191 | -89.31348 | 635 ft | 2 kts | 129° |
| 2026-04-24 00:10 | 48.37200 | -89.31367 | 635 ft | 2 kts | 129° |
| 2026-04-24 00:10 | 48.37206 | -89.31377 | 635 ft | 2 kts | 129° |
| 2026-04-24 00:10 | 48.37212 | -89.31398 | 635 ft | 2 kts | 95° |
| 2026-04-24 00:10 | 48.37211 | -89.31420 | 635 ft | 2 kts | 68° |
| 2026-04-24 00:11 | 48.37203 | -89.31438 | 635 ft | 1 kts | 42° |
| 2026-04-24 00:11 | 48.37198 | -89.31444 | 635 ft | 1 kts | 35° |
| 2026-04-24 00:11 | 48.37196 | -89.31446 | 635 ft | 0 kts | 37° |
| 2026-04-24 00:13 | 48.37203 | -89.31439 | 635 ft | 3 kts | 37° |
| 2026-04-24 00:13 | 48.37244 | -89.31391 | 634 ft | 10 kts | 38° |
| 2026-04-24 00:13 | 48.37299 | -89.31330 | 633 ft | 7 kts | 15° |
| 2026-04-24 00:14 | 48.37317 | -89.31366 | 632 ft | 5 kts | 264° |
| 2026-04-24 00:14 | 48.37302 | -89.31441 | 633 ft | 9 kts | 251° |
| 2026-04-24 00:14 | 48.37276 | -89.31553 | 633 ft | 13 kts | 250° |
| 2026-04-24 00:14 | 48.37243 | -89.31690 | 634 ft | 13 kts | 251° |
| 2026-04-24 00:15 | 48.37215 | -89.31812 | 634 ft | 12 kts | 251° |
| 2026-04-24 00:15 | 48.37184 | -89.31943 | 633 ft | 15 kts | 251° |
| 2026-04-24 00:15 | 48.37147 | -89.32101 | 634 ft | 14 kts | 251° |
| 2026-04-24 00:15 | 48.37117 | -89.32227 | 638 ft | 12 kts | 250° |
| 2026-04-24 00:16 | 48.37088 | -89.32353 | 641 ft | 13 kts | 250° |
| 2026-04-24 00:16 | 48.37057 | -89.32483 | 644 ft | 11 kts | 251° |
| 2026-04-24 00:16 | 48.37034 | -89.32578 | 647 ft | 8 kts | 250° |
| 2026-04-24 00:16 | 48.37022 | -89.32675 | 649 ft | 10 kts | 282° |
| 2026-04-24 00:17 | 48.37058 | -89.32782 | 651 ft | 12 kts | 301° |
| 2026-04-24 00:17 | 48.37107 | -89.32906 | 652 ft | 15 kts | 296° |
| 2026-04-24 00:17 | 48.37088 | -89.33059 | 651 ft | 15 kts | 250° |
| 2026-04-24 00:17 | 48.37051 | -89.33215 | 647 ft | 16 kts | 251° |
| 2026-04-24 00:18 | 48.37038 | -89.33321 | 645 ft | 8 kts | 276° |
| 2026-04-24 00:18 | 48.37027 | -89.33363 | 644 ft | 1 kts | 169° |
| 2026-04-24 00:18 | 48.37022 | -89.33343 | 645 ft | 2 kts | 95° |
| 2026-04-24 00:18 | 48.37024 | -89.33330 | 645 ft | 0 kts | 70° |
| 2026-04-24 00:19 | 48.37035 | -89.33282 | 646 ft | 24 kts | 70° |
| 2026-04-24 00:20 | 48.37174 | -89.32700 | 649 ft | 91 kts | 71° |
| 2026-04-24 00:20 | 48.37455 | -89.31506 | 631 ft | 148 kts | 70° |
| 2026-04-24 00:20 | 48.37841 | -89.29993 | 1031 ft | 161 kts | 72° |
| 2026-04-24 00:20 | 48.38235 | -89.28449 | 1785 ft | 161 kts | 76° |
| 2026-04-24 00:21 | 48.38604 | -89.26836 | 2334 ft | 169 kts | 78° |
| 2026-04-24 00:21 | 48.38956 | -89.25130 | 2843 ft | 171 kts | 88° |
| 2026-04-24 00:21 | 48.38855 | -89.23480 | 3382 ft | 157 kts | 125° |
| 2026-04-24 00:21 | 48.38064 | -89.22486 | 3876 ft | 153 kts | 166° |
| 2026-04-24 00:22 | 48.36994 | -89.22664 | 4231 ft | 169 kts | 199° |
| 2026-04-24 00:22 | 48.35912 | -89.23583 | 4509 ft | 187 kts | 205° |
| 2026-04-24 00:22 | 48.34718 | -89.24652 | 4631 ft | 211 kts | 205° |
| 2026-04-24 00:22 | 48.33378 | -89.25816 | 4936 ft | 231 kts | 205° |
| 2026-04-24 00:23 | 48.31950 | -89.27026 | 5459 ft | 242 kts | 206° |
| 2026-04-24 00:23 | 48.30463 | -89.28259 | 6097 ft | 248 kts | 206° |
| 2026-04-24 00:23 | 48.28962 | -89.29486 | 6801 ft | 250 kts | 205° |
| 2026-04-24 00:23 | 48.27432 | -89.30712 | 7516 ft | 252 kts | 206° |
| 2026-04-24 00:24 | 48.25859 | -89.31944 | 8136 ft | 258 kts | 206° |
| 2026-04-24 00:24 | 48.24258 | -89.33164 | 8806 ft | 261 kts | 206° |
| 2026-04-24 00:24 | 48.22624 | -89.34374 | 9475 ft | 263 kts | 206° |
| 2026-04-24 00:24 | 48.21003 | -89.35626 | 10030 ft | 270 kts | 209° |
| 2026-04-24 00:25 | 48.19320 | -89.37072 | 10304 ft | 287 kts | 210° |
| 2026-04-24 00:25 | 48.17553 | -89.38640 | 10483 ft | 306 kts | 211° |
| 2026-04-24 00:25 | 48.15626 | -89.40219 | 10678 ft | 323 kts | 205° |
| 2026-04-24 00:25 | 48.13491 | -89.41383 | 11030 ft | 335 kts | 195° |
| 2026-04-24 00:26 | 48.11160 | -89.41943 | 11475 ft | 344 kts | 186° |
| 2026-04-24 00:26 | 48.08762 | -89.41993 | 12047 ft | 350 kts | 180° |
| 2026-04-24 00:26 | 48.06332 | -89.41761 | 12728 ft | 351 kts | 178° |
| 2026-04-24 00:26 | 48.03899 | -89.41428 | 13337 ft | 355 kts | 176° |
| 2026-04-24 00:27 | 48.01457 | -89.41085 | 13995 ft | 358 kts | 176° |
| 2026-04-24 00:27 | 47.98975 | -89.40762 | 14675 ft | 360 kts | 177° |
| 2026-04-24 00:27 | 47.96464 | -89.40462 | 15259 ft | 364 kts | 177° |
| 2026-04-24 00:27 | 47.93961 | -89.40177 | 15874 ft | 367 kts | 177° |
| 2026-04-24 00:28 | 47.91378 | -89.39890 | 16452 ft | 371 kts | 177° |
| 2026-04-24 00:28 | 47.88809 | -89.39606 | 17052 ft | 375 kts | 176° |
| 2026-04-24 00:28 | 47.86184 | -89.39317 | 17588 ft | 379 kts | 176° |
| 2026-04-24 00:28 | 47.83564 | -89.39027 | 18162 ft | 382 kts | 176° |
| 2026-04-24 00:29 | 47.80900 | -89.38736 | 18658 ft | 387 kts | 177° |
| 2026-04-24 00:29 | 47.78243 | -89.38444 | 19345 ft | 387 kts | 177° |
| 2026-04-24 00:29 | 47.75524 | -89.38141 | 19883 ft | 391 kts | 177° |
| 2026-04-24 00:29 | 47.72818 | -89.37839 | 20518 ft | 392 kts | 177° |
| 2026-04-24 00:30 | 47.70112 | -89.37537 | 21011 ft | 395 kts | 178° |
| 2026-04-24 00:30 | 47.67386 | -89.37234 | 21456 ft | 400 kts | 178° |
| 2026-04-24 00:30 | 47.64573 | -89.36922 | 21950 ft | 403 kts | 178° |
| 2026-04-24 00:30 | 47.61792 | -89.36614 | 22387 ft | 407 kts | 178° |
| 2026-04-24 00:31 | 47.58968 | -89.36303 | 22889 ft | 410 kts | 178° |
| 2026-04-24 00:31 | 47.56116 | -89.35988 | 23395 ft | 411 kts | 178° |
| 2026-04-24 00:31 | 47.53280 | -89.35676 | 23766 ft | 417 kts | 178° |
| 2026-04-24 00:31 | 47.50391 | -89.35358 | 24356 ft | 416 kts | 178° |
| 2026-04-24 00:32 | 47.47509 | -89.35043 | 24693 ft | 422 kts | 178° |
| 2026-04-24 00:32 | 47.44555 | -89.34720 | 25116 ft | 425 kts | 178° |
| 2026-04-24 00:32 | 47.41615 | -89.34398 | 25610 ft | 427 kts | 178° |
| 2026-04-24 00:32 | 47.38635 | -89.34071 | 26061 ft | 429 kts | 178° |
| 2026-04-24 00:33 | 47.35687 | -89.33746 | 26482 ft | 432 kts | 179° |
| 2026-04-24 00:33 | 47.32677 | -89.33415 | 26977 ft | 432 kts | 179° |
| 2026-04-24 00:33 | 47.29691 | -89.33089 | 27319 ft | 436 kts | 179° |
| 2026-04-24 00:33 | 47.26629 | -89.32755 | 27639 ft | 441 kts | 179° |
| 2026-04-24 00:34 | 47.23586 | -89.32426 | 28020 ft | 443 kts | 179° |
| 2026-04-24 00:34 | 47.20533 | -89.32094 | 28493 ft | 443 kts | 179° |
| 2026-04-24 00:34 | 47.17457 | -89.31758 | 28834 ft | 446 kts | 179° |